Freelance — WSP9410 — position and weather

sailwx.info

Track history (hours):
 
Tides and Currents Weather Stations Pressure Air Temp Water Temp Dewpoint Dewpoint Depression Visibility Wind Speed Wind Dir Waves Ship Positions

Freelance

Owner: BROCKMAN, DONALD C, BALBOA, CA. More information available from US FCC via Universal Licensing System and Coast Guard Vessel Documentation Center.

Last reported at 2017-Nov-20 00:30 UTC. Time now 2017-Nov-21 13:29 UTC.
Position N 33°21' W 118°13'.

Length 25 m.

Type: Passenger vessel. MMSI: 366977380.

Date/timePositionNaut miles runAvg speedWind from/ knotsBaromVisibWave heightAir tempDewpointWater temp
2017-Nov-20 00:30N 33°21' W 118°13'13 5.4
2017-Nov-19 22:06N 33°19' W 118°28'0 0.0
2017-Nov-19 21:55N 33°19' W 118°28'8 2.2
2017-Nov-19 18:11N 33°17' W 118°18'0 0.1
2017-Nov-19 18:00N 33°17' W 118°18'0 0.1
2017-Nov-19 17:28N 33°17' W 118°18'4 9.1
2017-Nov-19 17:00N 33°19' W 118°14'1410.6
2017-Nov-19 15:44N 33°28' W 118°02'8 0.6
2017-Nov-19 02:22N 33°32' W 117°54'410.4
2017-Nov-19 02:00N 33°29' W 117°57'510.8
2017-Nov-19 01:30N 33°26' W 118°02'1110.5
2017-Nov-19 00:27N 33°20' W 118°13'510.7
2017-Nov-19 00:00N 33°18' W 118°18'2 2.8
2017-Nov-18 23:27N 33°18' W 118°20'6 2.8
2017-Nov-18 21:18N 33°19' W 118°27'31 0.7
2017-Nov-17 00:37N 33°34' W 117°55'210.7
2017-Nov-17 00:28N 33°33' W 117°57'510.9
2017-Nov-17 00:00N 33°30' W 118°01'510.6
2017-Nov-16 23:30N 33°27' W 118°07'510.7
2017-Nov-16 23:00N 33°24' W 118°12'510.4
2017-Nov-16 22:30N 33°21' W 118°17'2 3.0
2017-Nov-16 21:58N 33°20' W 118°18'1 1.3
2017-Nov-16 21:00N 33°19' W 118°18'1 1.0
2017-Nov-16 20:30N 33°18' W 118°18'1 1.6
2017-Nov-16 19:44N 33°18' W 118°20'1 3.2
2017-Nov-16 19:30N 33°17' W 118°19'0 0.4
2017-Nov-16 18:59N 33°17' W 118°19'0 0.6
2017-Nov-16 18:29N 33°17' W 118°18'4 4.9
2017-Nov-16 17:41N 33°20' W 118°15'210.5
2017-Nov-16 17:30N 33°21' W 118°13'510.5
2017-Nov-16 16:59N 33°25' W 118°08'510.3
2017-Nov-16 16:30N 33°28' W 118°04'610.3
2017-Nov-16 15:56N 33°32' W 117°58'510.5
2017-Nov-16 15:30N 33°34' W 117°54'2 0.1
2017-Nov-15 23:58N 33°36' W 117°55'3 1.4
2017-Nov-15 22:10N 33°37' W 117°58'0 0.0
2017-Nov-15 22:00N 33°37' W 117°58'2 4.7
2017-Nov-15 21:30N 33°36' W 118°00'5 7.1
2017-Nov-15 20:44N 33°37' W 118°07'2 7.2
2017-Nov-15 20:30N 33°36' W 118°08'2 4.7
2017-Nov-15 20:00N 33°36' W 118°11'1 1.7
2017-Nov-15 19:28N 33°35' W 118°10'2 3.5
2017-Nov-15 19:00N 33°34' W 118°09'0 0.5
2017-Nov-15 18:30N 33°34' W 118°08'0 0.5
2017-Nov-15 18:00N 33°34' W 118°09'0 0.2
2017-Nov-15 17:30N 33°34' W 118°09'0 0.8
2017-Nov-15 17:00N 33°34' W 118°09'0 0.7
2017-Nov-15 16:28N 33°34' W 118°09'3 0.2
2017-Nov-14 20:54N 33°37' W 118°10'1 2.1
2017-Nov-14 20:30N 33°37' W 118°10'2 3.7
2017-Nov-14 20:00N 33°36' W 118°09'0 0.7
2017-Nov-14 19:30N 33°35' W 118°09'1 0.7
2017-Nov-14 17:54N 33°34' W 118°08'0 0.6
2017-Nov-14 17:30N 33°34' W 118°09'0 0.3
2017-Nov-14 16:56N 33°34' W 118°09'0 0.4
2017-Nov-14 16:28N 33°34' W 118°09'10 0.7
2017-Nov-14 02:16N 33°30' W 117°57'310.6
2017-Nov-14 01:58N 33°29' W 118°00'510.9
2017-Nov-14 01:30N 33°26' W 118°06'910.7
2017-Nov-14 00:42N 33°22' W 118°15'210.8
2017-Nov-14 00:30N 33°21' W 118°17'2 2.8
2017-Nov-13 23:57N 33°20' W 118°18'0 0.8
2017-Nov-13 23:30N 33°19' W 118°18'0 0.0
2017-Nov-13 23:00N 33°19' W 118°18'0 0.0
2017-Nov-13 22:29N 33°19' W 118°18'1 1.5
2017-Nov-13 21:57N 33°20' W 118°18'25 1.3
2017-Nov-13 02:00N 33°35' W 117°54'2 2.7
2017-Nov-13 01:20N 33°35' W 117°56'4 7.7
2017-Nov-13 00:50N 33°36' W 118°00'3 8.4
2017-Nov-13 00:29N 33°37' W 118°03'3 1.9
2017-Nov-12 23:09N 33°37' W 118°07'4 5.4
2017-Nov-12 22:22N 33°35' W 118°11'2 4.4
2017-Nov-12 22:00N 33°35' W 118°13'0 0.0
2017-Nov-12 21:30N 33°35' W 118°13'1 0.8
2017-Nov-12 20:49N 33°35' W 118°12'1 3.2
2017-Nov-12 20:30N 33°36' W 118°11'3 1.1
2017-Nov-12 18:14N 33°34' W 118°09'0 0.0
2017-Nov-12 17:59N 33°34' W 118°09'0 0.0
2017-Nov-12 17:29N 33°34' W 118°09'0 0.3
2017-Nov-12 16:10N 33°34' W 118°09'2 7.0
2017-Nov-12 15:54N 33°34' W 118°07'410.7
2017-Nov-12 15:30N 33°35' W 118°02'25 1.2
2017-Nov-11 18:00N 33°18' W 118°25'8 0.4
2017-Nov-10 22:51N 33°26' W 118°25'7 2.5
2017-Nov-10 19:54N 33°21' W 118°19'  
Track history (hours):
 
Tides and Currents Weather Stations Pressure Air Temp Water Temp Dewpoint Dewpoint Depression Visibility Wind Speed Wind Dir Waves Ship Positions

Freelance

Owner: BROCKMAN, DONALD C, BALBOA, CA. More information available from US FCC via Universal Licensing System and Coast Guard Vessel Documentation Center.

Last reported at 2017-Nov-20 00:30 UTC. Time now 2017-Nov-21 13:29 UTC.
Position N 33°21' W 118°13'.

Length 25 m.

Type: Passenger vessel. MMSI: 366977380.

Date/timePositionNaut miles runAvg speedWind from/ knotsBaromVisibWave heightAir tempDewpointWater temp
2017-Nov-20 00:30N 33°21' W 118°13'13 5.4
2017-Nov-19 22:06N 33°19' W 118°28'0 0.0
2017-Nov-19 21:55N 33°19' W 118°28'8 2.2
2017-Nov-19 18:11N 33°17' W 118°18'0 0.1
2017-Nov-19 18:00N 33°17' W 118°18'0 0.1
2017-Nov-19 17:28N 33°17' W 118°18'4 9.1
2017-Nov-19 17:00N 33°19' W 118°14'1410.6
2017-Nov-19 15:44N 33°28' W 118°02'8 0.6
2017-Nov-19 02:22N 33°32' W 117°54'410.4
2017-Nov-19 02:00N 33°29' W 117°57'510.8
2017-Nov-19 01:30N 33°26' W 118°02'1110.5
2017-Nov-19 00:27N 33°20' W 118°13'510.7
2017-Nov-19 00:00N 33°18' W 118°18'2 2.8
2017-Nov-18 23:27N 33°18' W 118°20'6 2.8
2017-Nov-18 21:18N 33°19' W 118°27'31 0.7
2017-Nov-17 00:37N 33°34' W 117°55'210.7
2017-Nov-17 00:28N 33°33' W 117°57'510.9
2017-Nov-17 00:00N 33°30' W 118°01'510.6
2017-Nov-16 23:30N 33°27' W 118°07'510.7
2017-Nov-16 23:00N 33°24' W 118°12'510.4
2017-Nov-16 22:30N 33°21' W 118°17'2 3.0
2017-Nov-16 21:58N 33°20' W 118°18'1 1.3
2017-Nov-16 21:00N 33°19' W 118°18'1 1.0
2017-Nov-16 20:30N 33°18' W 118°18'1 1.6
2017-Nov-16 19:44N 33°18' W 118°20'1 3.2
2017-Nov-16 19:30N 33°17' W 118°19'0 0.4
2017-Nov-16 18:59N 33°17' W 118°19'0 0.6
2017-Nov-16 18:29N 33°17' W 118°18'4 4.9
2017-Nov-16 17:41N 33°20' W 118°15'210.5
2017-Nov-16 17:30N 33°21' W 118°13'510.5
2017-Nov-16 16:59N 33°25' W 118°08'510.3
2017-Nov-16 16:30N 33°28' W 118°04'610.3
2017-Nov-16 15:56N 33°32' W 117°58'510.5
2017-Nov-16 15:30N 33°34' W 117°54'2 0.1
2017-Nov-15 23:58N 33°36' W 117°55'3 1.4
2017-Nov-15 22:10N 33°37' W 117°58'0 0.0
2017-Nov-15 22:00N 33°37' W 117°58'2 4.7
2017-Nov-15 21:30N 33°36' W 118°00'5 7.1
2017-Nov-15 20:44N 33°37' W 118°07'2 7.2
2017-Nov-15 20:30N 33°36' W 118°08'2 4.7
2017-Nov-15 20:00N 33°36' W 118°11'1 1.7
2017-Nov-15 19:28N 33°35' W 118°10'2 3.5
2017-Nov-15 19:00N 33°34' W 118°09'0 0.5
2017-Nov-15 18:30N 33°34' W 118°08'0 0.5
2017-Nov-15 18:00N 33°34' W 118°09'0 0.2
2017-Nov-15 17:30N 33°34' W 118°09'0 0.8
2017-Nov-15 17:00N 33°34' W 118°09'0 0.7
2017-Nov-15 16:28N 33°34' W 118°09'3 0.2
2017-Nov-14 20:54N 33°37' W 118°10'1 2.1
2017-Nov-14 20:30N 33°37' W 118°10'2 3.7
2017-Nov-14 20:00N 33°36' W 118°09'0 0.7
2017-Nov-14 19:30N 33°35' W 118°09'1 0.7
2017-Nov-14 17:54N 33°34' W 118°08'0 0.6
2017-Nov-14 17:30N 33°34' W 118°09'0 0.3
2017-Nov-14 16:56N 33°34' W 118°09'0 0.4
2017-Nov-14 16:28N 33°34' W 118°09'10 0.7
2017-Nov-14 02:16N 33°30' W 117°57'310.6
2017-Nov-14 01:58N 33°29' W 118°00'510.9
2017-Nov-14 01:30N 33°26' W 118°06'910.7
2017-Nov-14 00:42N 33°22' W 118°15'210.8
2017-Nov-14 00:30N 33°21' W 118°17'2 2.8
2017-Nov-13 23:57N 33°20' W 118°18'0 0.8
2017-Nov-13 23:30N 33°19' W 118°18'0 0.0
2017-Nov-13 23:00N 33°19' W 118°18'0 0.0
2017-Nov-13 22:29N 33°19' W 118°18'1 1.5
2017-Nov-13 21:57N 33°20' W 118°18'25 1.3
2017-Nov-13 02:00N 33°35' W 117°54'2 2.7
2017-Nov-13 01:20N 33°35' W 117°56'4 7.7
2017-Nov-13 00:50N 33°36' W 118°00'3 8.4
2017-Nov-13 00:29N 33°37' W 118°03'3 1.9
2017-Nov-12 23:09N 33°37' W 118°07'4 5.4
2017-Nov-12 22:22N 33°35' W 118°11'2 4.4
2017-Nov-12 22:00N 33°35' W 118°13'0 0.0
2017-Nov-12 21:30N 33°35' W 118°13'1 0.8
2017-Nov-12 20:49N 33°35' W 118°12'1 3.2
2017-Nov-12 20:30N 33°36' W 118°11'3 1.1
2017-Nov-12 18:14N 33°34' W 118°09'0 0.0
2017-Nov-12 17:59N 33°34' W 118°09'0 0.0
2017-Nov-12 17:29N 33°34' W 118°09'0 0.3
2017-Nov-12 16:10N 33°34' W 118°09'2 7.0
2017-Nov-12 15:54N 33°34' W 118°07'410.7
2017-Nov-12 15:30N 33°35' W 118°02'25 1.2
2017-Nov-11 18:00N 33°18' W 118°25'8 0.4
2017-Nov-10 22:51N 33°26' W 118°25'7 2.5
2017-Nov-10 19:54N 33°21' W 118°19'  

Dump ship's entire track history